Villemontel, Canada
Current Conditions -  °F | °C
As of 4:00 AM on Monday 22 Dec 2014 (Local Time) from CYUY Reporting Station
Light Snow Light Snow  
Wind Chill: 14°   Ceiling: 2500
Heat Index: 21°   Visibility: 15mi
Dew Point: 18°   Wind: 6mph
Humidity: 86%   Direction: 170°S
Pressure: 30.21"   Gusts: NA
Location:  48.62°N, 78.37°W
Report Text: CYUY 220900Z 17005KT 15SM -SN OVC025 M06/M08 A3021 RMK SC8 SLP252
Loading
Personal Weather Stations






























Interactive Weather Map New forecast layout! Learn more

10-Day Weather Forecast

Advertisements
Track Severe Weather on mobile